PWSweather.com
Personal Weather Stations
Station Observations

ChardChardGB

Lat: 50.877408, Lon: -2.94964741

Elevation: 341

Station Type: WS3083

http://www.merriott-astro.co.uk/weather/index.htm

High Low Average
Temperature 52.3°F11.3°C 43.2°F6.2°C 49.9°F9.9°C
Dew Point 49.8°F9.9°C 40.4°F4.7°C 46.6°F8.1°C
Winds 11.8 mph 19.0 kmh Calm Calm 9.0 mph S14.5 kmh S
Wind Gusts 15.9 mph25.6 kmh -- 11.0 mph17.7 kmh
Humidity 91% 84% 88%
Pressure 29.47 in998.0 mb 29.31 in992.6 mb -
Precipitation 0.00 in0.0 mm - -
Hour Temp Dew Point Humidity Winds Wind Gusts Pressure Precip Precip Rate Daily Precip Total
12:00 AM 43.3°F6.3°C 40.6°F4.8°C 90% Calm Calm -- 29.47 in998.0 mb 0.00 in0.0 mm 0.00 in0.0 mm 0.00 in0.0 mm
12:10 AM 43.2°F6.2°C 40.4°F4.7°C 90% Calm Calm -- 29.46 in997.6 mb 0.00 in0.0 mm 0.00 in0.0 mm 0.00 in0.0 mm
12:20 AM 43.7°F6.5°C 41.0°F5.0°C 90% Calm Calm -- 29.46 in997.6 mb 0.00 in0.0 mm 0.00 in0.0 mm 0.00 in0.0 mm
12:30 AM 44.4°F6.9°C 41.7°F5.4°C 90% Calm Calm -- 29.46 in997.6 mb 0.00 in0.0 mm 0.00 in0.0 mm 0.00 in0.0 mm
12:40 AM 45.0°F7.2°C 42.5°F5.8°C 91% Calm Calm -- 29.45 in997.3 mb 0.00 in0.0 mm 0.00 in0.0 mm 0.00 in0.0 mm
12:50 AM 45.3°F7.4°C 42.9°F6.1°C 91% Calm Calm -- 29.45 in997.3 mb 0.00 in0.0 mm 0.00 in0.0 mm 0.00 in0.0 mm
01:00 AM 45.9°F7.7°C 41.9°F5.5°C 86% Calm Calm -- 29.45 in997.3 mb 0.00 in0.0 mm 0.00 in0.0 mm 0.00 in0.0 mm
01:10 AM 46.6°F8.1°C 42.9°F6.1°C 87% Calm Calm -- 29.44 in997.0 mb 0.00 in0.0 mm 0.00 in0.0 mm 0.00 in0.0 mm
01:20 AM 47.3°F8.5°C 43.6°F6.4°C 87% 1.1 mph SSE1.8 kmh SSE 6.9 mph11.1 kmh 29.44 in997.0 mb 0.00 in0.0 mm 0.00 in0.0 mm 0.00 in0.0 mm
01:30 AM 47.8°F8.8°C 44.5°F6.9°C 88% 0.4 mph SW0.6 kmh SW 6.9 mph11.1 kmh 29.45 in997.3 mb 0.00 in0.0 mm 0.00 in0.0 mm 0.00 in0.0 mm
01:40 AM 48.4°F9.1°C 45.0°F7.2°C 88% 3.5 mph SW5.6 kmh SW 7.6 mph12.2 kmh 29.44 in997.0 mb 0.00 in0.0 mm 0.00 in0.0 mm 0.00 in0.0 mm
01:50 AM 48.6°F9.2°C 45.2°F7.3°C 88% 5.9 mph S9.5 kmh S 10.7 mph17.2 kmh 29.44 in997.0 mb 0.00 in0.0 mm 0.00 in0.0 mm 0.00 in0.0 mm
02:00 AM 48.7°F9.3°C 45.3°F7.4°C 88% 4.1 mph SSW6.6 kmh SSW 9.2 mph14.8 kmh 29.43 in996.6 mb 0.00 in0.0 mm 0.00 in0.0 mm 0.00 in0.0 mm
02:10 AM 49.1°F9.5°C 46.0°F7.8°C 89% 8.1 mph SW13.0 kmh SW 13.6 mph21.9 kmh 29.43 in996.6 mb 0.00 in0.0 mm 0.00 in0.0 mm 0.00 in0.0 mm
02:20 AM 49.3°F9.6°C 46.2°F7.9°C 89% 8.7 mph S14.0 kmh S 10.7 mph17.2 kmh 29.44 in997.0 mb 0.00 in0.0 mm 0.00 in0.0 mm 0.00 in0.0 mm
02:30 AM 49.5°F9.7°C 46.4°F8.0°C 89% 6.7 mph SSW10.8 kmh SSW 11.4 mph18.3 kmh 29.44 in997.0 mb 0.00 in0.0 mm 0.00 in0.0 mm 0.00 in0.0 mm
02:40 AM 49.5°F9.7°C 46.4°F8.0°C 89% 8.8 mph SW14.2 kmh SW 10.7 mph17.2 kmh 29.43 in996.6 mb 0.00 in0.0 mm 0.00 in0.0 mm 0.00 in0.0 mm
02:50 AM 49.5°F9.7°C 46.4°F8.0°C 89% 7.2 mph S11.6 kmh S 10.7 mph17.2 kmh 29.43 in996.6 mb 0.00 in0.0 mm 0.00 in0.0 mm 0.00 in0.0 mm
03:00 AM 49.6°F9.8°C 46.5°F8.1°C 89% 7.8 mph SW12.6 kmh SW 12.1 mph19.5 kmh 29.43 in996.6 mb 0.00 in0.0 mm 0.00 in0.0 mm 0.00 in0.0 mm
03:10 AM 49.6°F9.8°C 46.5°F8.1°C 89% 7.4 mph SSW11.9 kmh SSW 10.7 mph17.2 kmh 29.43 in996.6 mb 0.00 in0.0 mm 0.00 in0.0 mm 0.00 in0.0 mm
03:20 AM 49.6°F9.8°C 46.5°F8.1°C 89% 10.7 mph SE17.2 kmh SE 10.7 mph17.2 kmh 29.43 in996.6 mb 0.00 in0.0 mm 0.00 in0.0 mm 0.00 in0.0 mm
03:30 AM 49.6°F9.8°C 46.5°F8.1°C 89% 10.7 mph SE17.2 kmh SE 10.7 mph17.2 kmh 29.43 in996.6 mb 0.00 in0.0 mm 0.00 in0.0 mm 0.00 in0.0 mm
03:40 AM 49.6°F9.8°C 46.5°F8.1°C 89% 10.7 mph SE17.2 kmh SE 10.7 mph17.2 kmh 29.43 in996.6 mb 0.00 in0.0 mm 0.00 in0.0 mm 0.00 in0.0 mm
03:50 AM 49.6°F9.8°C 46.5°F8.1°C 89% 10.7 mph SE17.2 kmh SE 10.7 mph17.2 kmh 29.43 in996.6 mb 0.00 in0.0 mm 0.00 in0.0 mm 0.00 in0.0 mm
04:00 AM 49.6°F9.8°C 46.5°F8.1°C 89% 10.7 mph SE17.2 kmh SE 10.7 mph17.2 kmh 29.43 in996.6 mb 0.00 in0.0 mm 0.00 in0.0 mm 0.00 in0.0 mm
04:10 AM 49.6°F9.8°C 46.5°F8.1°C 89% 10.7 mph SE17.2 kmh SE 10.7 mph17.2 kmh 29.42 in996.3 mb 0.00 in0.0 mm 0.00 in0.0 mm 0.00 in0.0 mm
04:20 AM 49.6°F9.8°C 46.5°F8.1°C 89% 10.7 mph SE17.2 kmh SE 10.7 mph17.2 kmh 29.43 in996.6 mb 0.00 in0.0 mm 0.00 in0.0 mm 0.00 in0.0 mm
04:30 AM 49.6°F9.8°C 46.5°F8.1°C 89% 10.7 mph SE17.2 kmh SE 10.7 mph17.2 kmh 29.43 in996.6 mb 0.00 in0.0 mm 0.00 in0.0 mm 0.00 in0.0 mm
04:40 AM 49.6°F9.8°C 46.5°F8.1°C 89% 10.7 mph SE17.2 kmh SE 10.7 mph17.2 kmh 29.43 in996.6 mb 0.00 in0.0 mm 0.00 in0.0 mm 0.00 in0.0 mm
04:50 AM 49.6°F9.8°C 46.5°F8.1°C 89% 10.7 mph SE17.2 kmh SE 10.7 mph17.2 kmh 29.43 in996.6 mb 0.00 in0.0 mm 0.00 in0.0 mm 0.00 in0.0 mm
05:00 AM 49.6°F9.8°C 46.5°F8.1°C 89% 10.7 mph SE17.2 kmh SE 10.7 mph17.2 kmh 29.43 in996.6 mb 0.00 in0.0 mm 0.00 in0.0 mm 0.00 in0.0 mm
05:10 AM 49.6°F9.8°C 46.5°F8.1°C 89% 10.7 mph SE17.2 kmh SE 10.7 mph17.2 kmh 29.43 in996.6 mb 0.00 in0.0 mm 0.00 in0.0 mm 0.00 in0.0 mm
05:20 AM 49.6°F9.8°C 46.5°F8.1°C 89% 10.7 mph SE17.2 kmh SE 10.7 mph17.2 kmh 29.42 in996.3 mb 0.00 in0.0 mm 0.00 in0.0 mm 0.00 in0.0 mm
05:30 AM 49.6°F9.8°C 46.5°F8.1°C 89% 10.7 mph SE17.2 kmh SE 10.7 mph17.2 kmh 29.43 in996.6 mb 0.00 in0.0 mm 0.00 in0.0 mm 0.00 in0.0 mm
05:40 AM 49.6°F9.8°C 46.5°F8.1°C 89% 10.7 mph SE17.2 kmh SE 10.7 mph17.2 kmh 29.42 in996.3 mb 0.00 in0.0 mm 0.00 in0.0 mm 0.00 in0.0 mm
05:50 AM 49.6°F9.8°C 46.5°F8.1°C 89% 10.7 mph SE17.2 kmh SE 10.7 mph17.2 kmh 29.43 in996.6 mb 0.00 in0.0 mm 0.00 in0.0 mm 0.00 in0.0 mm
06:00 AM 49.6°F9.8°C 46.5°F8.1°C 89% 10.7 mph SE17.2 kmh SE 10.7 mph17.2 kmh 29.42 in996.3 mb 0.00 in0.0 mm 0.00 in0.0 mm 0.00 in0.0 mm
06:10 AM 49.6°F9.8°C 46.5°F8.1°C 89% 10.7 mph SE17.2 kmh SE 10.7 mph17.2 kmh 29.43 in996.6 mb 0.00 in0.0 mm 0.00 in0.0 mm 0.00 in0.0 mm
06:20 AM 49.6°F9.8°C 46.5°F8.1°C 89% 10.7 mph SE17.2 kmh SE 10.7 mph17.2 kmh 29.43 in996.6 mb 0.00 in0.0 mm 0.00 in0.0 mm 0.00 in0.0 mm
06:30 AM 49.6°F9.8°C 46.5°F8.1°C 89% 10.7 mph SE17.2 kmh SE 10.7 mph17.2 kmh 29.42 in996.3 mb 0.00 in0.0 mm 0.00 in0.0 mm 0.00 in0.0 mm
06:40 AM 49.6°F9.8°C 46.5°F8.1°C 89% 10.7 mph SE17.2 kmh SE 10.7 mph17.2 kmh 29.42 in996.3 mb 0.00 in0.0 mm 0.00 in0.0 mm 0.00 in0.0 mm
06:50 AM 49.6°F9.8°C 46.5°F8.1°C 89% 10.7 mph SE17.2 kmh SE 10.7 mph17.2 kmh 29.42 in996.3 mb 0.00 in0.0 mm 0.00 in0.0 mm 0.00 in0.0 mm
07:00 AM 49.6°F9.8°C 46.5°F8.1°C 89% 10.7 mph SE17.2 kmh SE 10.7 mph17.2 kmh 29.42 in996.3 mb 0.00 in0.0 mm 0.00 in0.0 mm 0.00 in0.0 mm
07:10 AM 49.6°F9.8°C 46.5°F8.1°C 89% 10.7 mph SE17.2 kmh SE 10.7 mph17.2 kmh 29.43 in996.6 mb 0.00 in0.0 mm 0.00 in0.0 mm 0.00 in0.0 mm
07:20 AM 49.6°F9.8°C 46.5°F8.1°C 89% 10.7 mph SE17.2 kmh SE 10.7 mph17.2 kmh 29.43 in996.6 mb 0.00 in0.0 mm 0.00 in0.0 mm 0.00 in0.0 mm
07:30 AM 49.6°F9.8°C 46.5°F8.1°C 89% 10.7 mph SE17.2 kmh SE 10.7 mph17.2 kmh 29.44 in997.0 mb 0.00 in0.0 mm 0.00 in0.0 mm 0.00 in0.0 mm
07:40 AM 49.6°F9.8°C 46.5°F8.1°C 89% 10.7 mph SE17.2 kmh SE 10.7 mph17.2 kmh 29.44 in997.0 mb 0.00 in0.0 mm 0.00 in0.0 mm 0.00 in0.0 mm
07:50 AM 49.6°F9.8°C 46.5°F8.1°C 89% 10.7 mph SE17.2 kmh SE 10.7 mph17.2 kmh 29.44 in997.0 mb 0.00 in0.0 mm 0.00 in0.0 mm 0.00 in0.0 mm
08:00 AM 49.6°F9.8°C 46.5°F8.1°C 89% 10.7 mph SE17.2 kmh SE 10.7 mph17.2 kmh 29.44 in997.0 mb 0.00 in0.0 mm 0.00 in0.0 mm 0.00 in0.0 mm
08:10 AM 49.6°F9.8°C 46.5°F8.1°C 89% 10.7 mph SE17.2 kmh SE 10.7 mph17.2 kmh 29.45 in997.3 mb 0.00 in0.0 mm 0.00 in0.0 mm 0.00 in0.0 mm
08:20 AM 49.6°F9.8°C 46.5°F8.1°C 89% 10.7 mph SE17.2 kmh SE 10.7 mph17.2 kmh 29.45 in997.3 mb 0.00 in0.0 mm 0.00 in0.0 mm 0.00 in0.0 mm
08:30 AM 49.6°F9.8°C 46.5°F8.1°C 89% 10.7 mph SE17.2 kmh SE 10.7 mph17.2 kmh 29.45 in997.3 mb 0.00 in0.0 mm 0.00 in0.0 mm 0.00 in0.0 mm
08:40 AM 49.6°F9.8°C 46.5°F8.1°C 89% 10.7 mph SE17.2 kmh SE 10.7 mph17.2 kmh 29.45 in997.3 mb 0.00 in0.0 mm 0.00 in0.0 mm 0.00 in0.0 mm
08:50 AM 49.6°F9.8°C 46.5°F8.1°C 89% 10.7 mph SE17.2 kmh SE 10.7 mph17.2 kmh 29.45 in997.3 mb 0.00 in0.0 mm 0.00 in0.0 mm 0.00 in0.0 mm
09:00 AM 49.6°F9.8°C 46.5°F8.1°C 89% 10.7 mph SE17.2 kmh SE 10.7 mph17.2 kmh 29.46 in997.6 mb 0.00 in0.0 mm 0.00 in0.0 mm 0.00 in0.0 mm
09:10 AM 49.6°F9.8°C 46.5°F8.1°C 89% 10.7 mph SE17.2 kmh SE 10.7 mph17.2 kmh 29.46 in997.6 mb 0.00 in0.0 mm 0.00 in0.0 mm 0.00 in0.0 mm
09:20 AM 49.6°F9.8°C 46.5°F8.1°C 89% 10.7 mph SE17.2 kmh SE 10.7 mph17.2 kmh 29.46 in997.6 mb 0.00 in0.0 mm 0.00 in0.0 mm 0.00 in0.0 mm
09:30 AM 49.6°F9.8°C 46.5°F8.1°C 89% 10.7 mph SE17.2 kmh SE 10.7 mph17.2 kmh 29.46 in997.6 mb 0.00 in0.0 mm 0.00 in0.0 mm 0.00 in0.0 mm
09:40 AM 49.6°F9.8°C 46.5°F8.1°C 89% 10.7 mph SE17.2 kmh SE 10.7 mph17.2 kmh 29.46 in997.6 mb 0.00 in0.0 mm 0.00 in0.0 mm 0.00 in0.0 mm
09:50 AM 49.6°F9.8°C 46.5°F8.1°C 89% 10.7 mph SE17.2 kmh SE 10.7 mph17.2 kmh 29.46 in997.6 mb 0.00 in0.0 mm 0.00 in0.0 mm 0.00 in0.0 mm
10:00 AM 49.6°F9.8°C 46.5°F8.1°C 89% 10.7 mph SE17.2 kmh SE 10.7 mph17.2 kmh 29.45 in997.3 mb 0.00 in0.0 mm 0.00 in0.0 mm 0.00 in0.0 mm
10:10 AM 49.6°F9.8°C 46.5°F8.1°C 89% 10.7 mph SE17.2 kmh SE 10.7 mph17.2 kmh 29.45 in997.3 mb 0.00 in0.0 mm 0.00 in0.0 mm 0.00 in0.0 mm
10:20 AM 49.6°F9.8°C 46.5°F8.1°C 89% 10.7 mph SE17.2 kmh SE 10.7 mph17.2 kmh 29.45 in997.3 mb 0.00 in0.0 mm 0.00 in0.0 mm 0.00 in0.0 mm
10:30 AM 49.6°F9.8°C 46.5°F8.1°C 89% 10.7 mph SE17.2 kmh SE 10.7 mph17.2 kmh 29.45 in997.3 mb 0.00 in0.0 mm 0.00 in0.0 mm 0.00 in0.0 mm
10:40 AM 49.6°F9.8°C 46.5°F8.1°C 89% 10.7 mph SE17.2 kmh SE 10.7 mph17.2 kmh 29.45 in997.3 mb 0.00 in0.0 mm 0.00 in0.0 mm 0.00 in0.0 mm
10:50 AM 49.6°F9.8°C 46.5°F8.1°C 89% 10.7 mph SE17.2 kmh SE 10.7 mph17.2 kmh 29.45 in997.3 mb 0.00 in0.0 mm 0.00 in0.0 mm 0.00 in0.0 mm
11:00 AM 51.6°F10.9°C 49.1°F9.5°C 91% 8.7 mph SSW14.0 kmh SSW 14.5 mph23.3 kmh 29.46 in997.6 mb 0.00 in0.0 mm 0.00 in0.0 mm 0.00 in0.0 mm
11:10 AM 51.6°F10.9°C 49.1°F9.5°C 91% 6.3 mph SW10.1 kmh SW 10.7 mph17.2 kmh 29.46 in997.6 mb 0.00 in0.0 mm 0.00 in0.0 mm 0.00 in0.0 mm
11:20 AM 51.8°F11.0°C 49.3°F9.6°C 91% 9.7 mph SW15.6 kmh SW 15.2 mph24.5 kmh 29.45 in997.3 mb 0.00 in0.0 mm 0.00 in0.0 mm 0.00 in0.0 mm
11:30 AM 51.8°F11.0°C 49.3°F9.6°C 91% 10.4 mph S16.7 kmh S 15.2 mph24.5 kmh 29.46 in997.6 mb 0.00 in0.0 mm 0.00 in0.0 mm 0.00 in0.0 mm
11:40 AM 51.8°F11.0°C 49.3°F9.6°C 91% 7.9 mph SW12.7 kmh SW 13.6 mph21.9 kmh 29.46 in997.6 mb 0.00 in0.0 mm 0.00 in0.0 mm 0.00 in0.0 mm
11:50 AM 52.0°F11.1°C 49.4°F9.7°C 91% 7.1 mph SW11.4 kmh SW 13.0 mph20.9 kmh 29.46 in997.6 mb 0.00 in0.0 mm 0.00 in0.0 mm 0.00 in0.0 mm
12:00 PM 52.0°F11.1°C 49.4°F9.7°C 91% 9.4 mph SSW15.1 kmh SSW 12.1 mph19.5 kmh 29.46 in997.6 mb 0.00 in0.0 mm 0.00 in0.0 mm 0.00 in0.0 mm
12:10 PM 52.0°F11.1°C 49.4°F9.7°C 91% 8.1 mph SSW13.0 kmh SSW 14.5 mph23.3 kmh 29.45 in997.3 mb 0.00 in0.0 mm 0.00 in0.0 mm 0.00 in0.0 mm
12:20 PM 51.8°F11.0°C 49.3°F9.6°C 91% 10.0 mph S16.1 kmh S 15.9 mph25.6 kmh 29.45 in997.3 mb 0.00 in0.0 mm 0.00 in0.0 mm 0.00 in0.0 mm
12:30 PM 51.8°F11.0°C 49.3°F9.6°C 91% 9.5 mph SW15.3 kmh SW 12.1 mph19.5 kmh 29.45 in997.3 mb 0.00 in0.0 mm 0.00 in0.0 mm 0.00 in0.0 mm
12:40 PM 51.6°F10.9°C 49.1°F9.5°C 91% 9.9 mph SSW15.9 kmh SSW 13.6 mph21.9 kmh 29.45 in997.3 mb 0.00 in0.0 mm 0.00 in0.0 mm 0.00 in0.0 mm
12:50 PM 51.8°F11.0°C 49.3°F9.6°C 91% 10.2 mph SW16.4 kmh SW 13.6 mph21.9 kmh 29.44 in997.0 mb 0.00 in0.0 mm 0.00 in0.0 mm 0.00 in0.0 mm
01:00 PM 51.8°F11.0°C 49.3°F9.6°C 91% 10.9 mph S17.5 kmh S 15.9 mph25.6 kmh 29.44 in997.0 mb 0.00 in0.0 mm 0.00 in0.0 mm 0.00 in0.0 mm
01:10 PM 51.8°F11.0°C 49.3°F9.6°C 91% 8.6 mph SW13.8 kmh SW 10.7 mph17.2 kmh 29.43 in996.6 mb 0.00 in0.0 mm 0.00 in0.0 mm 0.00 in0.0 mm
01:20 PM 52.0°F11.1°C 49.4°F9.7°C 91% 9.4 mph S15.1 kmh S 15.9 mph25.6 kmh 29.43 in996.6 mb 0.00 in0.0 mm 0.00 in0.0 mm 0.00 in0.0 mm
01:30 PM 52.2°F11.2°C 49.6°F9.8°C 91% 9.9 mph SW15.9 kmh SW 13.0 mph20.9 kmh 29.43 in996.6 mb 0.00 in0.0 mm 0.00 in0.0 mm 0.00 in0.0 mm
01:40 PM 52.2°F11.2°C 49.6°F9.8°C 91% 8.8 mph S14.2 kmh S 15.2 mph24.5 kmh 29.43 in996.6 mb 0.00 in0.0 mm 0.00 in0.0 mm 0.00 in0.0 mm
01:50 PM 52.3°F11.3°C 49.8°F9.9°C 91% 10.4 mph SSW16.7 kmh SSW 15.2 mph24.5 kmh 29.43 in996.6 mb 0.00 in0.0 mm 0.00 in0.0 mm 0.00 in0.0 mm
02:00 PM 52.3°F11.3°C 49.5°F9.7°C 90% 7.8 mph SSE12.6 kmh SSE 9.8 mph15.8 kmh 29.42 in996.3 mb 0.00 in0.0 mm 0.00 in0.0 mm 0.00 in0.0 mm
02:10 PM 52.2°F11.2°C 49.3°F9.6°C 90% 8.9 mph SSW14.3 kmh SSW 12.1 mph19.5 kmh 29.42 in996.3 mb 0.00 in0.0 mm 0.00 in0.0 mm 0.00 in0.0 mm
02:20 PM 52.2°F11.2°C 49.3°F9.6°C 90% 8.8 mph SSW14.2 kmh SSW 11.4 mph18.3 kmh 29.42 in996.3 mb 0.00 in0.0 mm 0.00 in0.0 mm 0.00 in0.0 mm
02:30 PM 52.2°F11.2°C 49.3°F9.6°C 90% 7.8 mph SSW12.6 kmh SSW 11.4 mph18.3 kmh 29.42 in996.3 mb 0.00 in0.0 mm 0.00 in0.0 mm 0.00 in0.0 mm
02:40 PM 52.2°F11.2°C 49.3°F9.6°C 90% 9.6 mph SW15.4 kmh SW 15.2 mph24.5 kmh 29.41 in995.9 mb 0.00 in0.0 mm 0.00 in0.0 mm 0.00 in0.0 mm
02:50 PM 51.8°F11.0°C 49.0°F9.4°C 90% 9.9 mph S15.9 kmh S 13.0 mph20.9 kmh 29.41 in995.9 mb 0.00 in0.0 mm 0.00 in0.0 mm 0.00 in0.0 mm
03:00 PM 51.8°F11.0°C 49.0°F9.4°C 90% 9.3 mph SW15.0 kmh SW 12.1 mph19.5 kmh 29.40 in995.6 mb 0.00 in0.0 mm 0.00 in0.0 mm 0.00 in0.0 mm
03:10 PM 51.6°F10.9°C 48.8°F9.3°C 90% 9.2 mph SSW14.8 kmh SSW 13.0 mph20.9 kmh 29.41 in995.9 mb 0.00 in0.0 mm 0.00 in0.0 mm 0.00 in0.0 mm
03:20 PM 51.4°F10.8°C 48.3°F9.1°C 89% 11.8 mph SW19.0 kmh SW 15.2 mph24.5 kmh 29.40 in995.6 mb 0.00 in0.0 mm 0.00 in0.0 mm 0.00 in0.0 mm
03:30 PM 51.4°F10.8°C 48.3°F9.1°C 89% 11.4 mph SW18.3 kmh SW 13.0 mph20.9 kmh 29.39 in995.3 mb 0.00 in0.0 mm 0.00 in0.0 mm 0.00 in0.0 mm
03:40 PM 51.4°F10.8°C 48.3°F9.1°C 89% 11.4 mph SW18.3 kmh SW 13.0 mph20.9 kmh 29.39 in995.3 mb 0.00 in0.0 mm 0.00 in0.0 mm 0.00 in0.0 mm
03:50 PM 51.4°F10.8°C 48.3°F9.1°C 89% 11.4 mph SW18.3 kmh SW 13.0 mph20.9 kmh 29.40 in995.6 mb 0.00 in0.0 mm 0.00 in0.0 mm 0.00 in0.0 mm
04:00 PM 51.4°F10.8°C 48.3°F9.1°C 89% 11.4 mph SW18.3 kmh SW 13.0 mph20.9 kmh 29.39 in995.3 mb 0.00 in0.0 mm 0.00 in0.0 mm 0.00 in0.0 mm
04:10 PM 51.4°F10.8°C 48.3°F9.1°C 89% 11.4 mph SW18.3 kmh SW 13.0 mph20.9 kmh 29.39 in995.3 mb 0.00 in0.0 mm 0.00 in0.0 mm 0.00 in0.0 mm
04:20 PM 51.4°F10.8°C 48.3°F9.1°C 89% 11.4 mph SW18.3 kmh SW 13.0 mph20.9 kmh 29.38 in994.9 mb 0.00 in0.0 mm 0.00 in0.0 mm 0.00 in0.0 mm
04:30 PM 51.4°F10.8°C 48.3°F9.1°C 89% 11.4 mph SW18.3 kmh SW 13.0 mph20.9 kmh 29.39 in995.3 mb 0.00 in0.0 mm 0.00 in0.0 mm 0.00 in0.0 mm
04:40 PM 51.4°F10.8°C 48.3°F9.1°C 89% 11.4 mph SW18.3 kmh SW 13.0 mph20.9 kmh 29.39 in995.3 mb 0.00 in0.0 mm 0.00 in0.0 mm 0.00 in0.0 mm
04:50 PM 51.4°F10.8°C 48.3°F9.1°C 89% 11.4 mph SW18.3 kmh SW 13.0 mph20.9 kmh 29.38 in994.9 mb 0.00 in0.0 mm 0.00 in0.0 mm 0.00 in0.0 mm
05:00 PM 51.4°F10.8°C 48.3°F9.1°C 89% 11.4 mph SW18.3 kmh SW 13.0 mph20.9 kmh 29.38 in994.9 mb 0.00 in0.0 mm 0.00 in0.0 mm 0.00 in0.0 mm
05:10 PM 51.4°F10.8°C 48.3°F9.1°C 89% 11.4 mph SW18.3 kmh SW 13.0 mph20.9 kmh 29.38 in994.9 mb 0.00 in0.0 mm 0.00 in0.0 mm 0.00 in0.0 mm
05:20 PM 51.4°F10.8°C 48.3°F9.1°C 89% 11.4 mph SW18.3 kmh SW 13.0 mph20.9 kmh 29.39 in995.3 mb 0.00 in0.0 mm 0.00 in0.0 mm 0.00 in0.0 mm
05:30 PM 51.4°F10.8°C 48.3°F9.1°C 89% 11.4 mph SW18.3 kmh SW 13.0 mph20.9 kmh 29.39 in995.3 mb 0.00 in0.0 mm 0.00 in0.0 mm 0.00 in0.0 mm
05:40 PM 51.4°F10.8°C 48.3°F9.1°C 89% 11.4 mph SW18.3 kmh SW 13.0 mph20.9 kmh 29.38 in994.9 mb 0.00 in0.0 mm 0.00 in0.0 mm 0.00 in0.0 mm
05:50 PM 51.4°F10.8°C 48.3°F9.1°C 89% 11.4 mph SW18.3 kmh SW 13.0 mph20.9 kmh 29.39 in995.3 mb 0.00 in0.0 mm 0.00 in0.0 mm 0.00 in0.0 mm
06:00 PM 50.9°F10.5°C 47.2°F8.4°C 87% 10.2 mph S16.4 kmh S 11.4 mph18.3 kmh 29.39 in995.3 mb 0.00 in0.0 mm 0.00 in0.0 mm 0.00 in0.0 mm
06:10 PM 51.1°F10.6°C 47.4°F8.6°C 87% 9.8 mph SSW15.8 kmh SSW 12.1 mph19.5 kmh 29.39 in995.3 mb 0.00 in0.0 mm 0.00 in0.0 mm 0.00 in0.0 mm
06:20 PM 51.1°F10.6°C 47.4°F8.6°C 87% 9.8 mph SW15.8 kmh SW 13.6 mph21.9 kmh 29.39 in995.3 mb 0.00 in0.0 mm 0.00 in0.0 mm 0.00 in0.0 mm
06:30 PM 50.9°F10.5°C 46.9°F8.3°C 86% 8.9 mph WSW14.3 kmh WSW 12.1 mph19.5 kmh 29.39 in995.3 mb 0.00 in0.0 mm 0.00 in0.0 mm 0.00 in0.0 mm
06:40 PM 50.9°F10.5°C 46.9°F8.3°C 86% 8.1 mph SSW13.0 kmh SSW 10.7 mph17.2 kmh 29.40 in995.6 mb 0.00 in0.0 mm 0.00 in0.0 mm 0.00 in0.0 mm
06:50 PM 50.7°F10.4°C 46.7°F8.2°C 86% 7.0 mph SSW11.3 kmh SSW 10.7 mph17.2 kmh 29.39 in995.3 mb 0.00 in0.0 mm 0.00 in0.0 mm 0.00 in0.0 mm
07:00 PM 50.5°F10.3°C 46.2°F7.9°C 85% 7.1 mph S11.4 kmh S 9.8 mph15.8 kmh 29.39 in995.3 mb 0.00 in0.0 mm 0.00 in0.0 mm 0.00 in0.0 mm
07:10 PM 50.5°F10.3°C 46.2°F7.9°C 85% 6.6 mph SW10.6 kmh SW 8.3 mph13.4 kmh 29.39 in995.3 mb 0.00 in0.0 mm 0.00 in0.0 mm 0.00 in0.0 mm
07:20 PM 50.4°F10.2°C 46.0°F7.8°C 85% 7.1 mph SW11.4 kmh SW 10.7 mph17.2 kmh 29.38 in994.9 mb 0.00 in0.0 mm 0.00 in0.0 mm 0.00 in0.0 mm
07:30 PM 50.4°F10.2°C 46.0°F7.8°C 85% 7.0 mph SW11.3 kmh SW 9.2 mph14.8 kmh 29.38 in994.9 mb 0.00 in0.0 mm 0.00 in0.0 mm 0.00 in0.0 mm
07:40 PM 50.4°F10.2°C 46.0°F7.8°C 85% 5.6 mph SSW9.0 kmh SSW 8.3 mph13.4 kmh 29.38 in994.9 mb 0.00 in0.0 mm 0.00 in0.0 mm 0.00 in0.0 mm
07:50 PM 50.2°F10.1°C 45.9°F7.7°C 85% 6.2 mph SSW10.0 kmh SSW 8.3 mph13.4 kmh 29.38 in994.9 mb 0.00 in0.0 mm 0.00 in0.0 mm 0.00 in0.0 mm
08:00 PM 50.2°F10.1°C 45.9°F7.7°C 85% 5.8 mph SSW9.3 kmh SSW 7.6 mph12.2 kmh 29.37 in994.6 mb 0.00 in0.0 mm 0.00 in0.0 mm 0.00 in0.0 mm
08:10 PM 50.2°F10.1°C 45.9°F7.7°C 85% 5.8 mph SSW9.3 kmh SSW 9.2 mph14.8 kmh 29.37 in994.6 mb 0.00 in0.0 mm 0.00 in0.0 mm 0.00 in0.0 mm
08:20 PM 50.0°F10.0°C 45.7°F7.6°C 85% 6.2 mph SW10.0 kmh SW 8.3 mph13.4 kmh 29.37 in994.6 mb 0.00 in0.0 mm 0.00 in0.0 mm 0.00 in0.0 mm
08:30 PM 50.0°F10.0°C 45.7°F7.6°C 85% 7.0 mph WSW11.3 kmh WSW 9.8 mph15.8 kmh 29.37 in994.6 mb 0.00 in0.0 mm 0.00 in0.0 mm 0.00 in0.0 mm
08:40 PM 50.0°F10.0°C 45.7°F7.6°C 85% 8.5 mph SW13.7 kmh SW 13.0 mph20.9 kmh 29.37 in994.6 mb 0.00 in0.0 mm 0.00 in0.0 mm 0.00 in0.0 mm
08:50 PM 50.0°F10.0°C 45.7°F7.6°C 85% 6.8 mph SW10.9 kmh SW 13.6 mph21.9 kmh 29.37 in994.6 mb 0.00 in0.0 mm 0.00 in0.0 mm 0.00 in0.0 mm
09:00 PM 49.8°F9.9°C 45.5°F7.5°C 85% 9.3 mph SW15.0 kmh SW 13.0 mph20.9 kmh 29.37 in994.6 mb 0.00 in0.0 mm 0.00 in0.0 mm 0.00 in0.0 mm
09:10 PM 49.8°F9.9°C 45.5°F7.5°C 85% 8.2 mph SSW13.2 kmh SSW 11.4 mph18.3 kmh 29.37 in994.6 mb 0.00 in0.0 mm 0.00 in0.0 mm 0.00 in0.0 mm
09:20 PM 49.5°F9.7°C 45.1°F7.3°C 85% 5.5 mph SSW8.9 kmh SSW 8.3 mph13.4 kmh 29.36 in994.2 mb 0.00 in0.0 mm 0.00 in0.0 mm 0.00 in0.0 mm
09:30 PM 48.9°F9.4°C 44.3°F6.8°C 84% 4.9 mph SW7.9 kmh SW 6.0 mph9.7 kmh 29.36 in994.2 mb 0.00 in0.0 mm 0.00 in0.0 mm 0.00 in0.0 mm
09:40 PM 48.7°F9.3°C 44.1°F6.7°C 84% 5.5 mph S8.9 kmh S 8.3 mph13.4 kmh 29.35 in993.9 mb 0.00 in0.0 mm 0.00 in0.0 mm 0.00 in0.0 mm
09:50 PM 49.1°F9.5°C 44.8°F7.1°C 85% 7.3 mph S11.7 kmh S 10.7 mph17.2 kmh 29.35 in993.9 mb 0.00 in0.0 mm 0.00 in0.0 mm 0.00 in0.0 mm
10:00 PM 49.3°F9.6°C 45.0°F7.2°C 85% 6.8 mph SSW10.9 kmh SSW 11.4 mph18.3 kmh 29.35 in993.9 mb 0.00 in0.0 mm 0.00 in0.0 mm 0.00 in0.0 mm
10:10 PM 49.3°F9.6°C 45.0°F7.2°C 85% 3.3 mph S5.3 kmh S 12.1 mph19.5 kmh 29.34 in993.6 mb 0.00 in0.0 mm 0.00 in0.0 mm 0.00 in0.0 mm
10:20 PM 49.5°F9.7°C 45.1°F7.3°C 85% 8.8 mph SW14.2 kmh SW 13.0 mph20.9 kmh 29.34 in993.6 mb 0.00 in0.0 mm 0.00 in0.0 mm 0.00 in0.0 mm
10:30 PM 49.1°F9.5°C 44.8°F7.1°C 85% 6.6 mph S10.6 kmh S 11.4 mph18.3 kmh 29.34 in993.6 mb 0.00 in0.0 mm 0.00 in0.0 mm 0.00 in0.0 mm
10:40 PM 48.7°F9.3°C 44.4°F6.9°C 85% 5.9 mph WSW9.5 kmh WSW 11.4 mph18.3 kmh 29.34 in993.6 mb 0.00 in0.0 mm 0.00 in0.0 mm 0.00 in0.0 mm
10:50 PM 48.6°F9.2°C 44.3°F6.8°C 85% 5.1 mph SSW8.2 kmh SSW 13.0 mph20.9 kmh 29.34 in993.6 mb 0.00 in0.0 mm 0.00 in0.0 mm 0.00 in0.0 mm
11:00 PM 48.4°F9.1°C 44.1°F6.7°C 85% 6.6 mph SW10.6 kmh SW 9.2 mph14.8 kmh 29.33 in993.2 mb 0.00 in0.0 mm 0.00 in0.0 mm 0.00 in0.0 mm
11:10 PM 48.6°F9.2°C 44.0°F6.7°C 84% 7.5 mph SSW12.1 kmh SSW 10.7 mph17.2 kmh 29.33 in993.2 mb 0.00 in0.0 mm 0.00 in0.0 mm 0.00 in0.0 mm
11:20 PM 48.6°F9.2°C 44.0°F6.7°C 84% 9.4 mph S15.1 kmh S 13.6 mph21.9 kmh 29.33 in993.2 mb 0.00 in0.0 mm 0.00 in0.0 mm 0.00 in0.0 mm
11:30 PM 48.9°F9.4°C 44.3°F6.8°C 84% 6.3 mph SW10.1 kmh SW 9.2 mph14.8 kmh 29.32 in992.9 mb 0.00 in0.0 mm 0.00 in0.0 mm 0.00 in0.0 mm
11:40 PM 48.9°F9.4°C 44.3°F6.8°C 84% 6.2 mph SSW10.0 kmh SSW 8.3 mph13.4 kmh 29.31 in992.6 mb 0.00 in0.0 mm 0.00 in0.0 mm 0.00 in0.0 mm
11:50 PM 48.7°F9.3°C 44.1°F6.7°C 84% 6.9 mph SW11.1 kmh SW 10.7 mph17.2 kmh 29.31 in992.6 mb 0.00 in0.0 mm 0.00 in0.0 mm 0.00 in0.0 mm